createdAt,value
2023-01-17T00:00:35.015Z,95.25
2023-01-17T00:03:01.695Z,93.95
2023-01-17T00:05:46.900Z,91.75
2023-01-17T00:08:32.235Z,94.07
2023-01-17T00:10:59.179Z,89.82
2023-01-17T00:13:25.758Z,94.82
2023-01-17T00:15:53.122Z,90.68
2023-01-17T00:18:19.804Z,91.93
2023-01-17T00:21:04.781Z,93.55
2023-01-17T00:23:50.152Z,91.70
2023-01-17T00:26:19.671Z,90.65
2023-01-17T00:28:47.021Z,95.85
2023-01-17T00:31:15.190Z,99.18
2023-01-17T00:33:41.969Z,95.20
2023-01-17T00:36:09.570Z,94.50
2023-01-17T00:38:37.908Z,98.15
2023-01-17T00:41:07.155Z,100.63
2023-01-17T00:43:52.691Z,97.57
2023-01-17T00:46:39.148Z,94.50
2023-01-17T00:49:25.035Z,91.45
2023-01-17T00:52:10.409Z,91.75
2023-01-17T00:54:55.660Z,94.38
2023-01-17T00:57:40.975Z,92.20
2023-01-17T01:00:27.351Z,92.90
2023-01-17T01:03:12.298Z,92.75
2023-01-17T01:05:57.591Z,89.80
2023-01-17T01:08:44.788Z,91.15
2023-01-17T01:11:32.619Z,90.90
2023-01-17T01:14:18.660Z,94.85
2023-01-17T01:17:04.173Z,91.28
2023-01-17T01:19:49.678Z,90.35
2023-01-17T01:22:34.665Z,103.65
2023-01-17T01:25:20.096Z,96.22
2023-01-17T01:28:05.411Z,105.03
2023-01-17T01:30:50.820Z,94.68
2023-01-17T01:33:20.576Z,99.57
2023-01-17T01:35:55.227Z,92.93
2023-01-17T01:38:24.266Z,91.70
2023-01-17T01:40:54.089Z,101.13
2023-01-17T01:43:39.631Z,103.70
2023-01-17T01:46:07.033Z,96.10
2023-01-17T01:48:33.724Z,102.78
2023-01-17T01:51:03.763Z,99.25
2023-01-17T01:53:34.379Z,96.95
2023-01-17T01:56:01.578Z,94.88
2023-01-17T01:58:33.449Z,94.72
2023-01-17T02:01:00.262Z,93.32
2023-01-17T02:03:31.134Z,96.25
2023-01-17T02:06:04.186Z,91.93
2023-01-17T02:08:31.437Z,92.97
2023-01-17T02:10:58.515Z,93.70
2023-01-17T02:13:25.215Z,98.35
2023-01-17T02:16:03.058Z,94.90
2023-01-17T02:18:47.653Z,91.38
2023-01-17T02:21:23.212Z,91.57
2023-01-17T02:23:58.612Z,91.93
2023-01-17T02:26:25.119Z,86.63
2023-01-17T02:29:17.618Z,94.47
2023-01-17T02:31:54.477Z,82.15
2023-01-17T02:34:31.757Z,81.63
2023-01-17T02:37:06.288Z,81.28
2023-01-17T02:39:49.155Z,75.85
2023-01-17T02:42:20.525Z,89.10
2023-01-17T02:44:47.119Z,84.25
2023-01-17T02:47:24.232Z,81.88
2023-01-17T02:49:54.526Z,78.20
2023-01-17T02:52:45.289Z,79.55
2023-01-17T02:55:30.765Z,81.03
2023-01-17T02:58:09.455Z,85.68
2023-01-17T03:00:47.926Z,83.13
2023-01-17T03:03:21.176Z,84.43
2023-01-17T03:06:11.583Z,89.43
2023-01-17T03:08:47.763Z,86.75
2023-01-17T03:11:14.904Z,86.50
2023-01-17T03:13:42.269Z,89.55
2023-01-17T03:16:15.041Z,96.15
2023-01-17T03:18:42.085Z,90.53
2023-01-17T03:21:08.643Z,97.43
2023-01-17T03:23:35.248Z,96.15
2023-01-17T03:26:01.832Z,93.20
2023-01-17T03:28:29.863Z,95.15
2023-01-17T03:30:56.577Z,91.93
2023-01-17T03:33:24.336Z,95.70
2023-01-17T03:35:50.964Z,89.00
2023-01-17T03:38:17.610Z,91.50
2023-01-17T03:40:44.241Z,90.43
2023-01-17T03:43:10.938Z,86.88
2023-01-17T03:45:37.746Z,91.55
2023-01-17T03:48:04.611Z,88.45
2023-01-17T03:50:31.162Z,87.68
2023-01-17T03:52:57.816Z,91.20
2023-01-17T03:55:24.498Z,89.38
2023-01-17T03:57:51.246Z,89.50
2023-01-17T04:00:18.350Z,88.40
2023-01-17T04:02:44.958Z,86.28
2023-01-17T04:05:11.636Z,88.00
2023-01-17T04:07:38.176Z,80.40
2023-01-17T04:10:05.345Z,82.35
2023-01-17T04:12:31.886Z,73.63
2023-01-17T04:14:58.524Z,78.78
2023-01-17T04:17:25.119Z,78.10
2023-01-17T04:19:51.908Z,82.55
2023-01-17T04:22:18.435Z,88.15
2023-01-17T04:24:45.040Z,82.65
2023-01-17T04:27:14.328Z,83.32
2023-01-17T04:29:41.101Z,71.22
2023-01-17T04:32:07.822Z,70.10
2023-01-17T04:34:34.474Z,73.78
2023-01-17T04:37:01.064Z,77.03
2023-01-17T04:39:27.735Z,74.50
2023-01-17T04:41:54.310Z,75.82
2023-01-17T04:44:20.854Z,81.32
2023-01-17T04:46:47.402Z,72.35
2023-01-17T04:49:14.063Z,75.47
2023-01-17T04:51:40.658Z,81.57
2023-01-17T04:54:07.237Z,75.90
2023-01-17T04:56:33.800Z,79.60
2023-01-17T04:59:00.381Z,78.78
2023-01-17T05:01:27.376Z,81.60
2023-01-17T05:03:54.163Z,80.20
2023-01-17T05:06:20.810Z,69.05
2023-01-17T05:08:47.400Z,82.35
2023-01-17T05:11:14.088Z,81.15
2023-01-17T05:13:40.662Z,93.82
2023-01-17T05:16:07.475Z,87.97
2023-01-17T05:18:34.077Z,89.10
2023-01-17T05:21:04.299Z,80.20
2023-01-17T05:23:30.945Z,82.95
2023-01-17T05:25:57.539Z,89.95
2023-01-17T05:28:24.297Z,80.05
2023-01-17T05:30:50.948Z,85.80
2023-01-17T05:33:17.594Z,80.53
2023-01-17T05:35:44.114Z,78.03
2023-01-17T05:38:10.667Z,78.25
2023-01-17T05:40:37.249Z,86.30
2023-01-17T05:43:04.165Z,93.70
2023-01-17T05:45:32.733Z,87.03
2023-01-17T05:47:59.585Z,81.60
2023-01-17T05:50:30.046Z,96.88
2023-01-17T05:52:59.314Z,72.55
2023-01-17T05:55:27.229Z,86.90
2023-01-17T05:57:54.598Z,88.60
2023-01-17T06:00:22.211Z,77.38
2023-01-17T06:02:49.525Z,78.35
2023-01-17T06:05:16.717Z,89.68
2023-01-17T06:07:47.399Z,87.15
2023-01-17T06:10:15.571Z,85.68
2023-01-17T06:12:44.704Z,80.75
2023-01-17T06:15:12.698Z,83.00
2023-01-17T06:17:39.513Z,66.90
2023-01-17T06:20:08.781Z,76.00
2023-01-17T06:22:35.855Z,77.53
2023-01-17T06:25:02.486Z,83.55
2023-01-17T06:27:29.366Z,81.00
2023-01-17T06:29:55.887Z,75.03
2023-01-17T06:32:22.470Z,80.22
2023-01-17T06:34:49.021Z,82.88
2023-01-17T06:37:15.603Z,79.53
2023-01-17T06:39:42.307Z,83.20
2023-01-17T06:42:08.970Z,83.68
2023-01-17T06:44:35.522Z,66.32
2023-01-17T06:47:02.200Z,82.45
2023-01-17T06:49:28.910Z,84.40
2023-01-17T06:51:55.503Z,80.50
2023-01-17T06:54:22.059Z,83.13
2023-01-17T06:56:48.667Z,85.63
2023-01-17T06:59:15.266Z,87.13
2023-01-17T07:01:41.985Z,87.63
2023-01-17T07:04:08.730Z,85.97
2023-01-17T07:06:36.510Z,85.32
2023-01-17T07:09:04.236Z,85.47
2023-01-17T07:11:31.676Z,77.03
2023-01-17T07:13:58.253Z,74.88
2023-01-17T07:16:24.942Z,82.90
2023-01-17T07:18:51.842Z,77.97
2023-01-17T07:21:18.664Z,72.93
2023-01-17T07:23:45.382Z,80.78
2023-01-17T07:26:12.061Z,84.82
2023-01-17T07:28:38.672Z,81.30
2023-01-17T07:31:08.000Z,80.72
2023-01-17T07:33:35.388Z,76.53
2023-01-17T07:36:09.445Z,78.35
2023-01-17T07:38:36.229Z,79.40
2023-01-17T07:41:05.176Z,71.93
2023-01-17T07:43:31.887Z,74.15
2023-01-17T07:46:00.810Z,77.38
2023-01-17T07:48:28.613Z,66.53
2023-01-17T07:50:56.873Z,64.10
2023-01-17T07:53:27.813Z,65.22
2023-01-17T07:55:54.584Z,62.53
2023-01-17T07:58:21.684Z,68.22
2023-01-17T08:00:48.429Z,50.85
2023-01-17T08:03:17.360Z,49.75
2023-01-17T08:05:53.575Z,50.88
2023-01-17T08:08:20.313Z,56.88
2023-01-17T08:10:47.193Z,56.05
2023-01-17T08:13:13.756Z,56.88
2023-01-17T08:15:40.309Z,59.75
2023-01-17T08:18:06.881Z,70.32
2023-01-17T08:20:33.493Z,51.63
2023-01-17T08:23:00.055Z,67.22
2023-01-17T08:25:27.194Z,65.03
2023-01-17T08:27:58.017Z,46.13
2023-01-17T08:30:25.414Z,23.88
2023-01-17T08:32:51.989Z,25.90
2023-01-17T08:35:20.141Z,23.42
2023-01-17T08:37:47.631Z,21.02
2023-01-17T08:40:17.161Z,27.05
2023-01-17T08:42:44.254Z,24.67
2023-01-17T08:45:12.036Z,48.58
2023-01-17T08:47:38.758Z,45.58
2023-01-17T08:50:06.788Z,35.47
2023-01-17T08:52:33.894Z,30.92
2023-01-17T08:55:00.570Z,34.08
2023-01-17T08:57:27.443Z,33.33
2023-01-17T08:59:54.035Z,32.63
2023-01-17T09:02:20.831Z,42.00
2023-01-17T09:04:48.944Z,49.15
2023-01-17T09:07:18.246Z,61.78
2023-01-17T09:09:44.938Z,29.45
2023-01-17T09:12:12.019Z,33.17
2023-01-17T09:14:38.652Z,36.70
2023-01-17T09:17:07.057Z,27.75
2023-01-17T09:19:35.438Z,21.90
2023-01-17T09:22:04.220Z,23.30
2023-01-17T09:24:31.172Z,25.48
2023-01-17T09:26:57.743Z,24.83
2023-01-17T09:29:24.465Z,27.38
2023-01-17T09:31:51.068Z,29.67
2023-01-17T09:34:18.640Z,27.38
2023-01-17T09:36:45.322Z,29.35
2023-01-17T09:39:12.083Z,31.95
2023-01-17T09:42:03.339Z,25.13
2023-01-17T09:44:41.277Z,25.10
2023-01-17T09:47:18.594Z,20.35
2023-01-17T09:49:47.611Z,18.95
2023-01-17T09:52:18.659Z,17.83
2023-01-17T09:54:48.024Z,15.40
2023-01-17T09:57:41.118Z,12.85
2023-01-17T10:00:35.773Z,13.02
2023-01-17T10:03:18.123Z,14.25
2023-01-17T10:05:56.649Z,13.43
2023-01-17T10:08:57.061Z,14.30
2023-01-17T10:11:55.477Z,13.07
2023-01-17T10:14:42.171Z,13.00
2023-01-17T10:17:20.976Z,13.00
2023-01-17T10:20:06.046Z,12.10
2023-01-17T10:22:51.257Z,11.80
2023-01-17T10:25:39.451Z,11.82
2023-01-17T10:28:18.924Z,11.90
2023-01-17T10:30:50.892Z,11.75
2023-01-17T10:33:20.493Z,12.05
2023-01-17T10:35:57.498Z,9.45
2023-01-17T10:38:31.720Z,10.60
2023-01-17T10:41:29.883Z,10.10
2023-01-17T10:44:18.568Z,10.25
2023-01-17T10:47:08.659Z,9.93
2023-01-17T10:49:38.958Z,10.40
2023-01-17T10:52:17.428Z,9.50
2023-01-17T10:54:53.197Z,9.85
2023-01-17T10:57:24.964Z,9.38
2023-01-17T10:59:53.694Z,9.60
2023-01-17T11:02:28.148Z,9.30
2023-01-17T11:04:57.323Z,9.23
2023-01-17T11:07:28.683Z,9.30
2023-01-17T11:09:57.507Z,9.40
2023-01-17T11:12:33.633Z,9.73
2023-01-17T11:15:09.047Z,9.65
2023-01-17T11:17:38.030Z,9.60
2023-01-17T11:20:13.965Z,9.82
2023-01-17T11:22:47.345Z,9.57
2023-01-17T11:25:22.410Z,9.70
2023-01-17T11:28:04.927Z,9.68
2023-01-17T11:30:31.620Z,10.15
2023-01-17T11:33:00.412Z,10.10
2023-01-17T11:35:31.406Z,9.65
2023-01-17T11:38:07.288Z,10.23
2023-01-17T11:40:44.109Z,10.40
2023-01-17T11:43:18.767Z,10.00
2023-01-17T11:45:47.388Z,9.73
2023-01-17T11:48:17.099Z,10.30
2023-01-17T11:51:04.695Z,10.07
2023-01-17T11:53:39.337Z,10.13
2023-01-17T11:56:10.440Z,10.98
2023-01-17T11:58:41.135Z,10.30
2023-01-17T12:01:16.853Z,10.55
2023-01-17T12:04:08.191Z,10.18
2023-01-17T12:06:51.592Z,10.52
2023-01-17T12:09:46.248Z,10.55
2023-01-17T12:13:08.533Z,10.20
2023-01-17T12:15:51.969Z,10.25
2023-01-17T12:18:44.592Z,10.00
2023-01-17T12:21:25.267Z,10.20
2023-01-17T12:24:02.295Z,11.00
2023-01-17T12:26:37.912Z,9.65
2023-01-17T12:29:29.219Z,10.15
2023-01-17T12:32:10.664Z,9.73
2023-01-17T12:34:54.243Z,10.68
2023-01-17T12:37:20.803Z,9.70
2023-01-17T12:39:57.163Z,10.18
2023-01-17T12:42:32.330Z,9.57
2023-01-17T12:45:07.548Z,10.00
2023-01-17T12:47:42.817Z,10.18
2023-01-17T12:50:24.943Z,9.98
2023-01-17T12:53:07.203Z,10.18
2023-01-17T12:55:40.663Z,10.52
2023-01-17T12:58:15.920Z,11.17
2023-01-17T13:00:45.277Z,11.10
2023-01-17T13:03:46.344Z,12.68
2023-01-17T13:06:25.005Z,16.80
2023-01-17T13:08:56.941Z,14.80
2023-01-17T13:11:30.980Z,14.02
2023-01-17T13:13:59.873Z,14.95
2023-01-17T13:16:35.234Z,15.38
2023-01-17T13:19:15.705Z,14.20
2023-01-17T13:21:42.552Z,14.73
2023-01-17T13:24:21.272Z,15.10
2023-01-17T13:27:05.470Z,14.75
2023-01-17T13:29:43.959Z,16.15
2023-01-17T13:32:28.363Z,15.20
2023-01-17T13:35:10.337Z,15.25
2023-01-17T13:37:39.607Z,14.35
2023-01-17T13:40:18.318Z,15.63
2023-01-17T13:42:56.098Z,14.57
2023-01-17T13:45:37.646Z,15.70
2023-01-17T13:48:14.651Z,15.85
2023-01-17T13:50:41.216Z,15.85
2023-01-17T13:53:28.943Z,16.67
2023-01-17T13:56:18.476Z,18.23
2023-01-17T13:59:08.237Z,19.45
2023-01-17T14:01:38.464Z,23.67
2023-01-17T14:04:09.429Z,26.35
2023-01-17T14:06:36.168Z,29.30
2023-01-17T14:09:12.723Z,28.80
2023-01-17T14:12:05.684Z,29.58
2023-01-17T14:14:46.344Z,31.58
2023-01-17T14:17:29.379Z,30.13
2023-01-17T14:20:01.804Z,29.10
2023-01-17T14:22:34.709Z,27.15
2023-01-17T14:25:10.027Z,26.88
2023-01-17T14:27:42.428Z,25.17
2023-01-17T14:30:18.197Z,24.88
2023-01-17T14:33:20.193Z,24.15
2023-01-17T14:35:57.911Z,23.55
2023-01-17T14:38:29.983Z,23.75
2023-01-17T14:41:07.849Z,23.77
2023-01-17T14:43:37.726Z,23.70
2023-01-17T14:46:08.154Z,23.30
2023-01-17T14:48:39.303Z,24.83
2023-01-17T14:51:13.045Z,25.30
2023-01-17T14:53:39.894Z,25.47
2023-01-17T14:56:17.120Z,26.90
2023-01-17T14:58:46.486Z,27.40
2023-01-17T15:01:18.002Z,29.00
2023-01-17T15:03:51.261Z,31.55
2023-01-17T15:06:34.448Z,34.08
2023-01-17T15:09:01.211Z,35.45
2023-01-17T15:11:31.457Z,38.42
2023-01-17T15:14:01.545Z,42.50
2023-01-17T15:16:34.095Z,43.22
2023-01-17T15:19:02.359Z,45.10
2023-01-17T15:21:33.104Z,46.53
2023-01-17T15:24:07.135Z,49.63
2023-01-17T15:26:35.956Z,51.65
2023-01-17T15:29:08.442Z,50.30
2023-01-17T15:31:42.911Z,51.47
2023-01-17T15:34:33.055Z,50.10
2023-01-17T15:37:10.823Z,49.95
2023-01-17T15:39:40.560Z,51.60
2023-01-17T15:42:19.745Z,51.08
2023-01-17T15:44:51.195Z,51.00
2023-01-17T15:47:33.437Z,53.63
2023-01-17T15:50:03.143Z,48.30
2023-01-17T15:52:29.908Z,45.45
2023-01-17T15:55:12.539Z,44.58
2023-01-17T15:57:39.762Z,44.35
2023-01-17T16:00:14.778Z,44.15
2023-01-17T16:02:43.105Z,40.60
2023-01-17T16:05:22.782Z,35.97
2023-01-17T16:07:53.328Z,35.65
2023-01-17T16:10:22.633Z,33.83
2023-01-17T16:12:52.864Z,32.35
2023-01-17T16:15:26.166Z,29.92
2023-01-17T16:17:57.575Z,29.63
2023-01-17T16:20:29.611Z,28.77
2023-01-17T16:22:56.251Z,29.70
2023-01-17T16:25:24.221Z,28.50
2023-01-17T16:27:52.155Z,28.45
2023-01-17T16:30:23.979Z,28.27
2023-01-17T16:32:51.160Z,29.20
2023-01-17T16:35:24.867Z,29.98
2023-01-17T16:38:02.251Z,31.27
2023-01-17T16:40:32.080Z,32.20
2023-01-17T16:43:00.010Z,32.33
2023-01-17T16:45:27.140Z,30.27
2023-01-17T16:47:54.800Z,28.67
2023-01-17T16:50:23.952Z,27.65
2023-01-17T16:52:51.640Z,27.17
2023-01-17T16:55:22.217Z,25.50
2023-01-17T16:57:50.281Z,26.42
2023-01-17T17:00:18.118Z,32.92
2023-01-17T17:02:44.768Z,41.67
2023-01-17T17:05:11.379Z,53.25
2023-01-17T17:07:46.252Z,59.05
2023-01-17T17:10:15.607Z,73.10
2023-01-17T17:12:42.583Z,74.43
2023-01-17T17:15:10.435Z,69.55
2023-01-17T17:17:38.819Z,60.17
2023-01-17T17:20:06.386Z,44.05
2023-01-17T17:22:33.353Z,41.08
2023-01-17T17:25:00.022Z,35.72
2023-01-17T17:27:27.935Z,31.00
2023-01-17T17:29:54.522Z,28.48
2023-01-17T17:32:21.725Z,27.92
2023-01-17T17:34:50.744Z,29.05
2023-01-17T17:37:17.576Z,27.02
2023-01-17T17:39:45.307Z,26.95
2023-01-17T17:42:12.676Z,29.10
2023-01-17T17:44:39.386Z,32.67
2023-01-17T17:47:05.998Z,33.83
2023-01-17T17:49:32.741Z,37.53
2023-01-17T17:52:07.031Z,40.47
2023-01-17T17:54:34.092Z,41.72
2023-01-17T17:57:00.860Z,46.38
2023-01-17T17:59:27.621Z,50.30
2023-01-17T18:01:54.245Z,52.80
2023-01-17T18:04:21.735Z,53.72
2023-01-17T18:06:48.470Z,57.03
2023-01-17T18:09:16.301Z,57.17
2023-01-17T18:11:43.877Z,59.30
2023-01-17T18:14:15.100Z,59.70
2023-01-17T18:16:43.968Z,57.15
2023-01-17T18:19:28.588Z,58.58
2023-01-17T18:21:55.421Z,54.05
2023-01-17T18:24:24.801Z,58.47
2023-01-17T18:26:53.522Z,57.90
2023-01-17T18:29:21.713Z,60.38
2023-01-17T18:31:50.110Z,60.25
2023-01-17T18:34:24.072Z,61.10
2023-01-17T18:36:51.919Z,59.53
2023-01-17T18:39:27.414Z,60.47
2023-01-17T18:41:55.230Z,61.33
2023-01-17T18:44:22.647Z,59.45
2023-01-17T18:46:51.061Z,61.35
2023-01-17T18:49:19.340Z,60.50
2023-01-17T18:51:50.323Z,60.78
2023-01-17T18:54:18.387Z,56.50
2023-01-17T18:56:45.148Z,59.85
2023-01-17T18:59:13.282Z,59.40
2023-01-17T19:01:43.530Z,57.72
2023-01-17T19:04:11.766Z,57.88
2023-01-17T19:06:41.035Z,54.03
2023-01-17T19:09:09.140Z,53.80
2023-01-17T19:11:39.028Z,54.15
2023-01-17T19:14:06.843Z,57.97
2023-01-17T19:16:39.045Z,56.72
2023-01-17T19:19:08.297Z,51.70
2023-01-17T19:21:35.160Z,57.80
2023-01-17T19:24:01.795Z,52.33
2023-01-17T19:26:29.929Z,52.88
2023-01-17T19:29:00.794Z,57.80
2023-01-17T19:31:30.541Z,59.83
2023-01-17T19:34:00.445Z,55.92
2023-01-17T19:36:31.593Z,50.97
2023-01-17T19:39:04.904Z,45.40
2023-01-17T19:41:34.729Z,49.88
2023-01-17T19:44:04.195Z,43.28
2023-01-17T19:46:31.620Z,47.88
2023-01-17T19:48:58.622Z,44.85
2023-01-17T19:51:26.877Z,52.33
2023-01-17T19:53:54.295Z,51.05
2023-01-17T19:56:26.056Z,52.65
2023-01-17T19:58:53.417Z,48.33
2023-01-17T20:01:25.219Z,49.47
2023-01-17T20:03:52.798Z,56.05
2023-01-17T20:06:23.327Z,40.38
2023-01-17T20:08:50.568Z,43.92
2023-01-17T20:11:20.879Z,46.22
2023-01-17T20:13:49.213Z,52.83
2023-01-17T20:16:19.244Z,40.03
2023-01-17T20:18:45.829Z,41.08
2023-01-17T20:21:15.232Z,41.33
2023-01-17T20:23:43.068Z,49.42
2023-01-17T20:26:11.200Z,40.42
2023-01-17T20:28:39.753Z,43.47
2023-01-17T20:31:15.743Z,44.58
2023-01-17T20:33:44.227Z,48.03
2023-01-17T20:36:15.466Z,45.47
2023-01-17T20:38:45.792Z,38.38
2023-01-17T20:41:49.364Z,40.75
2023-01-17T20:44:16.606Z,30.75
2023-01-17T20:46:43.576Z,35.58
2023-01-17T20:49:14.772Z,38.08
2023-01-17T20:51:41.870Z,36.60
2023-01-17T20:54:12.965Z,42.03
2023-01-17T20:56:40.359Z,35.95
2023-01-17T20:59:11.386Z,34.38
2023-01-17T21:01:38.754Z,28.23
2023-01-17T21:04:10.058Z,30.60
2023-01-17T21:06:39.726Z,32.38
2023-01-17T21:09:08.555Z,31.65
2023-01-17T21:11:35.911Z,25.90
2023-01-17T21:14:02.583Z,27.10
2023-01-17T21:16:29.250Z,25.58
2023-01-17T21:18:56.023Z,26.25
2023-01-17T21:21:25.472Z,24.55
2023-01-17T21:23:55.287Z,23.15
2023-01-17T21:26:25.659Z,22.63
2023-01-17T21:28:52.601Z,23.15
2023-01-17T21:31:24.820Z,23.38
2023-01-17T21:34:06.056Z,23.95
2023-01-17T21:36:35.830Z,23.65
2023-01-17T21:39:05.644Z,23.95
2023-01-17T21:41:35.232Z,25.20
2023-01-17T21:44:05.065Z,25.77
2023-01-17T21:46:31.856Z,24.67
2023-01-17T21:48:58.463Z,23.80
2023-01-17T21:51:45.385Z,25.42
2023-01-17T21:54:12.171Z,26.88
2023-01-17T21:56:57.509Z,24.42
2023-01-17T21:59:24.064Z,24.38
2023-01-17T22:01:51.048Z,24.65
2023-01-17T22:04:17.693Z,24.98
2023-01-17T22:06:44.272Z,25.20
2023-01-17T22:09:10.802Z,25.30
2023-01-17T22:11:37.425Z,23.23
2023-01-17T22:14:04.852Z,23.10
2023-01-17T22:16:31.558Z,23.02
2023-01-17T22:18:58.223Z,24.13
2023-01-17T22:21:28.191Z,23.30
2023-01-17T22:23:57.103Z,23.67
2023-01-17T22:26:26.693Z,24.52
2023-01-17T22:28:53.885Z,23.35
2023-01-17T22:31:25.939Z,23.65
2023-01-17T22:33:55.686Z,22.92
2023-01-17T22:36:23.024Z,23.02
2023-01-17T22:38:50.269Z,23.63
2023-01-17T22:41:20.222Z,23.42
2023-01-17T22:43:52.914Z,23.15
2023-01-17T22:46:22.441Z,23.98
2023-01-17T22:48:49.392Z,23.48
2023-01-17T22:51:17.984Z,23.02
2023-01-17T22:53:53.287Z,23.92
2023-01-17T22:56:38.119Z,23.40
2023-01-17T22:59:11.256Z,23.85
2023-01-17T23:01:40.603Z,24.20
2023-01-17T23:04:07.872Z,23.90
2023-01-17T23:06:37.272Z,23.00
2023-01-17T23:09:12.851Z,24.15
2023-01-17T23:11:45.010Z,22.42
2023-01-17T23:14:19.629Z,22.92
2023-01-17T23:17:08.645Z,23.58
2023-01-17T23:19:41.220Z,23.05
2023-01-17T23:22:16.657Z,22.63
2023-01-17T23:24:44.429Z,23.40
2023-01-17T23:27:32.061Z,22.95
2023-01-17T23:29:59.115Z,23.45
2023-01-17T23:32:25.911Z,23.05
2023-01-17T23:34:54.870Z,23.38
2023-01-17T23:37:21.506Z,23.30
2023-01-17T23:39:48.048Z,22.35
2023-01-17T23:42:33.881Z,24.10
2023-01-17T23:45:00.642Z,23.75
2023-01-17T23:47:27.186Z,23.77
2023-01-17T23:49:53.744Z,22.92
2023-01-17T23:52:20.283Z,23.88
2023-01-17T23:54:48.576Z,23.83
2023-01-17T23:57:15.158Z,23.42
2023-01-17T23:59:41.756Z,23.05
